Time;durP1;ratioP1;P1;durP2;ratioP2;P2;SDS_P1;SDS_P2;PMS_P1;PMS_P2;Temp;Humidity;BMP_temperature;BMP_pressure;BME280_temperature;BME280_humidity;BME280_pressure;Samples;Min_cycle;Max_cycle;Signal;HPM_P1;HPM_P2
2023/01/27 00:02:22;;;;;;;;;;;4.90;63.50;;;;;;5092839;28;20304;-89
2023/01/27 00:04:48;;;;;;;;;;;4.90;63.40;;;;;;5092860;28;20302;-89
2023/01/27 00:07:13;;;;;;;;;;;4.80;63.50;;;;;;5093257;28;19997;-89
2023/01/27 00:09:40;;;;;;;;;;;4.70;62.90;;;;;;5074953;28;19961;-89
2023/01/27 00:14:52;;;;;;;;;;;4.60;64.20;;;;;;5093065;28;19980;-88
2023/01/27 00:17:17;;;;;;;;;;;4.60;64.80;;;;;;5092914;28;19944;-88
2023/01/27 00:19:43;;;;;;;;;;;4.70;65.10;;;;;;5093058;28;20342;-88
2023/01/27 00:24:52;;;;;;;;;;;4.70;64.60;;;;;;5093350;28;19949;-88
2023/01/27 00:27:18;;;;;;;;;;;4.70;64.60;;;;;;5092950;28;19942;-89
2023/01/27 00:29:43;;;;;;;;;;;4.70;63.70;;;;;;5092907;28;19982;-89
2023/01/27 00:34:53;;;;;;;;;;;4.70;63.20;;;;;;5072764;28;20040;-89
2023/01/27 00:37:19;;;;;;;;;;;4.70;62.60;;;;;;5072618;28;20035;-89
2023/01/27 00:39:45;;;;;;;;;;;4.80;63.10;;;;;;5072968;28;19961;-89
2023/01/27 00:42:10;;;;;;;;;;;4.80;62.40;;;;;;5072599;28;20399;-89
2023/01/27 00:44:36;;;;;;;;;;;4.90;63.10;;;;;;5072613;28;20445;-89
2023/01/27 00:47:01;;;;;;;;;;;4.90;62.80;;;;;;5077677;28;19952;-89
2023/01/27 00:49:27;;;;;;;;;;;4.90;62.90;;;;;;5092911;28;20001;-89
2023/01/27 00:51:53;;;;;;;;;;;4.90;62.70;;;;;;5092684;28;19939;-89
2023/01/27 00:54:19;;;;;;;;;;;4.80;62.80;;;;;;5092704;28;20027;-89
2023/01/27 00:56:45;;;;;;;;;;;4.70;63.00;;;;;;5092835;28;19979;-89
2023/01/27 00:59:10;;;;;;;;;;;4.70;64.60;;;;;;5074623;28;19943;-89
2023/01/27 01:01:37;;;;;;;;;;;4.60;64.50;;;;;;5092690;28;20411;-89
2023/01/27 01:04:02;;;;;;;;;;;4.60;65.00;;;;;;5096064;28;19976;-89
2023/01/27 01:06:28;;;;;;;;;;;4.50;64.30;;;;;;5096535;28;19977;-89
2023/01/27 01:08:55;;;;;;;;;;;4.60;63.80;;;;;;5096232;28;20303;-89
2023/01/27 01:11:21;;;;;;;;;;;4.60;63.60;;;;;;5096208;28;19935;-89
2023/01/27 01:13:47;;;;;;;;;;;4.60;64.10;;;;;;5103588;22;19997;-89
2023/01/27 01:16:14;;;;;;;;;;;4.60;66.60;;;;;;5096390;28;20386;-89
2023/01/27 01:18:41;;;;;;;;;;;4.60;65.80;;;;;;5095751;28;19943;-89
2023/01/27 01:21:07;;;;;;;;;;;4.60;64.90;;;;;;5095529;28;20405;-89
2023/01/27 01:23:40;;;;;;;;;;;4.60;64.70;;;;;;5095524;28;20353;-89
2023/01/27 01:26:06;;;;;;;;;;;4.70;64.80;;;;;;5096006;28;19981;-89
2023/01/27 01:28:32;;;;;;;;;;;4.70;66.20;;;;;;5095558;28;20009;-89
2023/01/27 01:31:04;;;;;;;;;;;4.60;66.70;;;;;;5095832;28;19946;-88
2023/01/27 01:33:30;;;;;;;;;;;4.60;66.70;;;;;;5095735;28;20277;-89
2023/01/27 01:35:56;;;;;;;;;;;4.50;67.60;;;;;;5096024;28;19962;-89
2023/01/27 01:38:21;;;;;;;;;;;4.50;66.90;;;;;;5095667;28;20395;-88
2023/01/27 01:40:47;;;;;;;;;;;4.50;66.10;;;;;;5095449;28;19983;-88
2023/01/27 01:43:17;;;;;;;;;;;4.50;66.00;;;;;;5095659;28;19944;-88
2023/01/27 01:45:45;;;;;;;;;;;4.50;66.10;;;;;;5077521;28;20402;-89
2023/01/27 01:48:12;;;;;;;;;;;4.40;72.00;;;;;;5095467;28;19957;-88
2023/01/27 01:50:39;;;;;;;;;;;4.40;74.70;;;;;;5095108;28;20390;-89
2023/01/27 01:53:05;;;;;;;;;;;4.20;74.80;;;;;;5095427;28;19959;-89
2023/01/27 01:55:32;;;;;;;;;;;4.10;73.30;;;;;;5095319;28;19936;-88
2023/01/27 01:57:57;;;;;;;;;;;4.10;73.70;;;;;;5095285;28;19945;-88
2023/01/27 02:00:23;;;;;;;;;;;3.90;73.50;;;;;;5095057;28;20520;-88
2023/01/27 02:02:49;;;;;;;;;;;4.00;73.60;;;;;;5095261;28;19947;-88
2023/01/27 02:05:16;;;;;;;;;;;4.00;73.50;;;;;;5095235;28;19946;-88
2023/01/27 02:07:48;;;;;;;;;;;3.90;73.90;;;;;;5095055;28;19939;-88
2023/01/27 02:10:14;;;;;;;;;;;3.80;72.30;;;;;;5094837;28;20336;-88
2023/01/27 02:12:39;;;;;;;;;;;3.90;72.30;;;;;;5095042;28;19948;-88
2023/01/27 02:15:05;;;;;;;;;;;3.80;72.70;;;;;;5093827;28;20346;-88
2023/01/27 02:17:30;;;;;;;;;;;3.90;72.30;;;;;;5094886;28;19947;-89
2023/01/27 02:20:02;;;;;;;;;;;3.90;71.90;;;;;;5094650;28;19946;-88
2023/01/27 02:22:48;;;;;;;;;;;4.00;71.20;;;;;;5094883;28;20408;-88
2023/01/27 02:25:23;;;;;;;;;;;4.20;70.50;;;;;;5094790;28;19980;-88
2023/01/27 02:27:48;;;;;;;;;;;4.20;70.60;;;;;;5094669;28;20396;-88
2023/01/27 02:30:14;;;;;;;;;;;4.30;70.80;;;;;;5094531;28;19940;-88
2023/01/27 02:32:39;;;;;;;;;;;4.30;70.90;;;;;;5094592;28;19938;-88
2023/01/27 02:35:07;;;;;;;;;;;4.40;71.20;;;;;;5094591;28;19945;-88
2023/01/27 02:37:33;;;;;;;;;;;4.40;72.10;;;;;;5094620;28;19934;-88
2023/01/27 02:39:59;;;;;;;;;;;4.30;73.30;;;;;;5094253;28;19980;-88
2023/01/27 02:42:25;;;;;;;;;;;4.40;72.90;;;;;;5094509;28;19942;-88
2023/01/27 02:44:50;;;;;;;;;;;4.30;72.20;;;;;;5094392;28;19944;-88
2023/01/27 02:47:16;;;;;;;;;;;4.40;72.70;;;;;;5094389;28;19959;-88
2023/01/27 02:49:41;;;;;;;;;;;4.40;71.40;;;;;;5093785;28;20039;-88
2023/01/27 02:52:07;;;;;;;;;;;4.40;72.50;;;;;;5093605;28;19950;-88
2023/01/27 02:54:32;;;;;;;;;;;4.40;72.00;;;;;;5094271;28;20342;-88
2023/01/27 02:56:58;;;;;;;;;;;4.40;71.90;;;;;;5094071;28;19937;-88
2023/01/27 02:59:23;;;;;;;;;;;4.40;72.50;;;;;;5093862;28;20396;-88
2023/01/27 03:01:49;;;;;;;;;;;4.40;72.40;;;;;;5094116;28;19946;-88
2023/01/27 03:04:14;;;;;;;;;;;4.40;72.40;;;;;;5094068;28;19938;-88
2023/01/27 03:06:40;;;;;;;;;;;4.40;72.60;;;;;;5094025;28;19943;-88
2023/01/27 03:09:05;;;;;;;;;;;4.40;73.40;;;;;;5093701;28;20019;-89
2023/01/27 03:14:15;;;;;;;;;;;4.30;73.00;;;;;;5093815;28;19983;-89
2023/01/27 03:19:25;;;;;;;;;;;4.40;72.40;;;;;;5093565;28;19946;-89
2023/01/27 03:21:55;;;;;;;;;;;4.30;72.90;;;;;;5093715;28;19942;-88
2023/01/27 03:24:20;;;;;;;;;;;4.30;71.30;;;;;;5093682;28;19986;-87
2023/01/27 03:26:46;;;;;;;;;;;4.40;71.80;;;;;;5093473;28;19936;-88
2023/01/27 03:31:56;;;;;;;;;;;4.40;71.60;;;;;;5093623;28;19948;-88
2023/01/27 03:34:21;;;;;;;;;;;4.40;73.20;;;;;;5093561;28;19934;-88
2023/01/27 03:47:44;;;;;;;;;;;4.00;75.80;;;;;;5093384;28;19945;-88
2023/01/27 03:50:18;;;;;;;;;;;4.00;76.10;;;;;;5093048;28;19946;-88
2023/01/27 03:53:01;;;;;;;;;;;4.10;76.50;;;;;;5093286;28;19961;-89
2023/01/27 03:55:30;;;;;;;;;;;4.00;76.80;;;;;;5093253;28;19943;-88
2023/01/27 03:57:56;;;;;;;;;;;4.00;76.60;;;;;;5093263;28;19939;-88
2023/01/27 04:00:22;;;;;;;;;;;3.90;75.80;;;;;;5074784;28;19970;-88
2023/01/27 04:08:16;;;;;;;;;;;3.90;77.70;;;;;;5093117;28;19967;-88
2023/01/27 04:11:53;;;;;;;;;;;3.90;78.30;;;;;;5092707;28;20440;-88
2023/01/27 04:13:26;;;;;;;;;;;3.80;78.00;;;;;;5092829;28;19979;-87
2023/01/27 04:15:55;;;;;;;;;;;3.70;76.30;;;;;;5093112;28;19950;-88
2023/01/27 04:18:20;;;;;;;;;;;3.70;75.50;;;;;;5093042;28;19942;-88
2023/01/27 04:20:46;;;;;;;;;;;3.70;76.80;;;;;;5092798;28;19947;-88
2023/01/27 04:23:11;;;;;;;;;;;3.80;76.00;;;;;;5093135;28;19953;-88
2023/01/27 04:25:37;;;;;;;;;;;3.80;76.50;;;;;;5092955;28;20450;-88
2023/01/27 04:28:02;;;;;;;;;;;3.80;76.90;;;;;;5092898;28;20010;-88
2023/01/27 04:30:28;;;;;;;;;;;3.80;77.60;;;;;;5092709;28;19946;-88
2023/01/27 04:32:53;;;;;;;;;;;3.80;78.30;;;;;;5092958;28;19937;-88
2023/01/27 04:35:19;;;;;;;;;;;3.80;77.80;;;;;;5092883;28;19946;-88
2023/01/27 04:37:44;;;;;;;;;;;3.90;75.50;;;;;;5094730;28;19941;-88
2023/01/27 04:40:10;;;;;;;;;;;3.90;75.60;;;;;;5078350;28;19944;-88
2023/01/27 04:42:35;;;;;;;;;;;3.90;76.00;;;;;;5096841;28;19982;-88
2023/01/27 04:45:01;;;;;;;;;;;3.90;75.20;;;;;;5096741;28;19937;-89
2023/01/27 04:47:26;;;;;;;;;;;3.90;75.90;;;;;;5096723;28;19944;-88
2023/01/27 04:49:52;;;;;;;;;;;3.90;75.00;;;;;;5096334;28;19964;-88
2023/01/27 04:52:18;;;;;;;;;;;3.90;75.10;;;;;;5096582;28;19975;-88
2023/01/27 04:54:43;;;;;;;;;;;4.00;75.30;;;;;;5078343;28;20552;-88
2023/01/27 04:57:09;;;;;;;;;;;4.00;74.50;;;;;;5096433;28;19940;-89
2023/01/27 04:59:34;;;;;;;;;;;4.00;73.20;;;;;;5096118;28;19948;-89
2023/01/27 05:02:00;;;;;;;;;;;4.00;72.10;;;;;;5096427;28;19950;-89
2023/01/27 05:04:26;;;;;;;;;;;4.00;72.00;;;;;;5096391;28;20038;-89
2023/01/27 05:06:51;;;;;;;;;;;4.00;71.60;;;;;;5096549;28;19953;-88
2023/01/27 05:09:17;;;;;;;;;;;4.10;71.40;;;;;;5095983;28;19961;-89
2023/01/27 05:11:42;;;;;;;;;;;4.20;71.40;;;;;;5096261;28;19947;-89
2023/01/27 05:14:08;;;;;;;;;;;4.40;70.80;;;;;;5096032;28;20023;-89
2023/01/27 05:16:33;;;;;;;;;;;4.40;69.70;;;;;;5096188;28;19936;-88
2023/01/27 05:18:59;;;;;;;;;;;4.40;69.70;;;;;;5095805;28;20283;-89
2023/01/27 05:21:27;;;;;;;;;;;4.40;69.80;;;;;;5096021;28;19948;-88
2023/01/27 05:23:52;;;;;;;;;;;4.50;69.20;;;;;;5095915;28;19940;-88
2023/01/27 05:26:22;;;;;;;;;;;4.50;69.00;;;;;;5095948;28;20312;-88
2023/01/27 05:28:48;;;;;;;;;;;4.40;68.80;;;;;;5095872;28;20049;-88
2023/01/27 05:31:17;;;;;;;;;;;4.40;68.50;;;;;;5095658;28;20098;-89
2023/01/27 05:33:43;;;;;;;;;;;4.30;68.70;;;;;;5095800;28;20029;-88
2023/01/27 05:36:10;;;;;;;;;;;4.20;68.80;;;;;;5095398;28;20069;-88
2023/01/27 05:38:36;;;;;;;;;;;4.30;68.80;;;;;;5095718;28;19949;-88
2023/01/27 05:41:02;;;;;;;;;;;4.30;70.00;;;;;;5095234;28;19944;-89
2023/01/27 05:43:29;;;;;;;;;;;4.40;68.40;;;;;;5095633;28;19941;-88
2023/01/27 05:46:21;;;;;;;;;;;4.40;68.30;;;;;;5095580;28;19947;-88
2023/01/27 05:48:47;;;;;;;;;;;4.40;68.60;;;;;;5090309;28;19961;-88
2023/01/27 05:51:13;;;;;;;;;;;4.40;68.50;;;;;;5095028;28;19955;-88
2023/01/27 05:53:39;;;;;;;;;;;4.30;68.90;;;;;;5095353;28;19978;-88
2023/01/27 05:56:05;;;;;;;;;;;4.20;68.70;;;;;;5095286;28;20450;-88
2023/01/27 05:58:31;;;;;;;;;;;4.20;68.80;;;;;;5095550;28;19947;-89
2023/01/27 06:01:04;;;;;;;;;;;4.20;69.20;;;;;;5095147;28;20419;-88
2023/01/27 06:03:30;;;;;;;;;;;4.20;68.90;;;;;;5095302;28;20015;-88
2023/01/27 06:05:55;;;;;;;;;;;4.10;70.10;;;;;;5077108;28;19946;-89
2023/01/27 06:08:22;;;;;;;;;;;4.00;70.90;;;;;;5094967;28;20055;-89
2023/01/27 06:10:47;;;;;;;;;;;4.10;71.10;;;;;;5094814;28;19954;-89
2023/01/27 06:13:13;;;;;;;;;;;4.10;72.60;;;;;;5076944;28;19947;-89
2023/01/27 06:15:39;;;;;;;;;;;4.10;72.80;;;;;;5094880;28;19987;-88
2023/01/27 06:18:05;;;;;;;;;;;4.20;72.40;;;;;;5094675;28;19945;-88
2023/01/27 06:20:30;;;;;;;;;;;4.30;70.90;;;;;;5094627;28;19945;-89
2023/01/27 06:22:56;;;;;;;;;;;4.40;69.50;;;;;;5094804;28;19942;-89
2023/01/27 06:25:21;;;;;;;;;;;4.30;68.90;;;;;;5092666;28;19950;-88
2023/01/27 06:27:47;;;;;;;;;;;4.20;68.80;;;;;;5093431;28;19955;-88
2023/01/27 06:30:13;;;;;;;;;;;4.10;69.00;;;;;;5082666;28;19947;-89
2023/01/27 06:32:38;;;;;;;;;;;4.10;68.90;;;;;;5087268;28;19952;-89
2023/01/27 06:35:04;;;;;;;;;;;4.00;69.00;;;;;;5089291;28;19945;-88
2023/01/27 06:37:29;;;;;;;;;;;4.00;69.80;;;;;;5087223;28;19946;-88
2023/01/27 06:39:55;;;;;;;;;;;3.80;70.00;;;;;;5090686;28;20040;-89
2023/01/27 06:42:21;;;;;;;;;;;3.70;70.50;;;;;;5090688;28;19953;-89
2023/01/27 06:44:46;;;;;;;;;;;3.70;69.90;;;;;;5086869;28;19944;-89
2023/01/27 06:47:12;;;;;;;;;;;3.70;69.60;;;;;;5088394;28;19940;-88
2023/01/27 06:49:37;;;;;;;;;;;3.70;69.20;;;;;;5091711;28;19973;-89
2023/01/27 06:52:03;;;;;;;;;;;3.70;68.80;;;;;;5081519;28;19942;-89
2023/01/27 06:54:28;;;;;;;;;;;3.70;68.90;;;;;;5091517;28;19947;-88
2023/01/27 06:56:53;;;;;;;;;;;3.80;68.50;;;;;;5090141;28;20307;-88
2023/01/27 06:59:19;;;;;;;;;;;3.80;68.00;;;;;;5092079;28;19940;-88
2023/01/27 07:01:44;;;;;;;;;;;3.80;67.60;;;;;;5087400;28;20015;-88
2023/01/27 07:04:10;;;;;;;;;;;3.80;67.20;;;;;;5092707;28;19986;-89
2023/01/27 07:06:35;;;;;;;;;;;3.80;67.00;;;;;;5071902;28;21380;-88
2023/01/27 07:09:01;;;;;;;;;;;3.70;66.90;;;;;;5090419;28;19944;-89
2023/01/27 07:11:26;;;;;;;;;;;3.70;67.10;;;;;;5085085;28;20421;-88
2023/01/27 07:13:52;;;;;;;;;;;3.80;67.00;;;;;;5089197;28;20015;-89
2023/01/27 07:16:17;;;;;;;;;;;3.80;66.90;;;;;;5081550;28;19946;-89
2023/01/27 07:18:43;;;;;;;;;;;3.90;66.80;;;;;;5089807;28;19946;-89
2023/01/27 07:21:09;;;;;;;;;;;3.90;66.50;;;;;;5092054;28;19950;-89
2023/01/27 07:23:34;;;;;;;;;;;4.00;66.10;;;;;;5092571;28;19962;-89
2023/01/27 07:26:01;;;;;;;;;;;4.10;65.70;;;;;;5092029;28;20398;-88
2023/01/27 07:28:26;;;;;;;;;;;4.10;65.00;;;;;;5088448;28;20444;-88
2023/01/27 07:30:52;;;;;;;;;;;4.20;65.30;;;;;;5086647;28;19943;-88
2023/01/27 07:33:17;;;;;;;;;;;4.10;65.20;;;;;;5085067;28;19956;-88
2023/01/27 07:35:43;;;;;;;;;;;4.00;65.30;;;;;;5087194;28;19941;-88
2023/01/27 07:38:08;;;;;;;;;;;3.90;65.10;;;;;;5088949;28;19945;-88
2023/01/27 07:40:34;;;;;;;;;;;4.00;65.20;;;;;;5086324;28;20034;-88
2023/01/27 07:43:00;;;;;;;;;;;4.00;65.40;;;;;;5083265;28;20026;-89
2023/01/27 07:45:26;;;;;;;;;;;3.90;67.00;;;;;;5092135;28;19952;-89
2023/01/27 07:47:52;;;;;;;;;;;3.80;68.10;;;;;;5086987;28;19940;-89
2023/01/27 07:50:18;;;;;;;;;;;3.80;69.10;;;;;;5072996;28;19943;-89
2023/01/27 07:52:43;;;;;;;;;;;3.80;69.00;;;;;;5091763;28;19964;-89
2023/01/27 07:55:09;;;;;;;;;;;3.70;69.20;;;;;;5086092;28;19952;-88
2023/01/27 07:57:34;;;;;;;;;;;3.70;69.80;;;;;;5073590;28;20350;-89
2023/01/27 08:00:00;;;;;;;;;;;3.70;69.70;;;;;;5086341;28;20047;-88
2023/01/27 08:02:27;;;;;;;;;;;3.70;70.00;;;;;;5084972;28;20344;-88
2023/01/27 08:04:53;;;;;;;;;;;3.80;69.90;;;;;;5089162;28;20406;-88
2023/01/27 08:07:19;;;;;;;;;;;3.80;70.70;;;;;;5089908;28;19943;-88
2023/01/27 08:09:44;;;;;;;;;;;3.80;68.80;;;;;;5083730;28;20454;-88
2023/01/27 08:12:10;;;;;;;;;;;3.80;67.70;;;;;;5087531;28;19948;-89
2023/01/27 08:14:35;;;;;;;;;;;3.90;67.50;;;;;;5092413;28;19976;-89
2023/01/27 08:17:01;;;;;;;;;;;4.10;66.20;;;;;;5091994;28;20022;-89
2023/01/27 08:19:26;;;;;;;;;;;4.30;65.90;;;;;;5091126;28;20336;-89
2023/01/27 08:21:52;;;;;;;;;;;4.30;66.60;;;;;;5092227;28;20301;-89
2023/01/27 08:24:17;;;;;;;;;;;4.30;66.20;;;;;;5085697;28;20070;-89
2023/01/27 08:26:43;;;;;;;;;;;4.40;65.70;;;;;;5090182;28;19939;-89
2023/01/27 08:29:08;;;;;;;;;;;4.50;64.40;;;;;;5089309;28;20317;-89
2023/01/27 08:31:34;;;;;;;;;;;4.70;62.70;;;;;;5093339;28;20409;-89
2023/01/27 08:33:59;;;;;;;;;;;4.80;63.30;;;;;;5096743;28;20403;-89
2023/01/27 08:36:25;;;;;;;;;;;4.90;61.00;;;;;;5082081;28;19949;-89
2023/01/27 08:38:50;;;;;;;;;;;5.10;60.30;;;;;;5085972;28;19944;-88
2023/01/27 08:41:18;;;;;;;;;;;5.20;59.00;;;;;;5076854;28;20375;-88
2023/01/27 08:43:44;;;;;;;;;;;5.20;60.10;;;;;;5093119;28;19967;-88
2023/01/27 08:46:10;;;;;;;;;;;5.20;59.10;;;;;;5081826;28;20413;-88
2023/01/27 08:48:36;;;;;;;;;;;5.30;58.90;;;;;;5086861;28;20034;-88
2023/01/27 08:51:03;;;;;;;;;;;5.30;57.40;;;;;;5079124;28;20005;-89
2023/01/27 08:53:29;;;;;;;;;;;5.30;57.40;;;;;;5089578;28;20008;-89
2023/01/27 08:55:55;;;;;;;;;;;5.30;59.00;;;;;;5076854;28;19988;-89
2023/01/27 08:58:20;;;;;;;;;;;5.30;58.20;;;;;;5094530;28;19949;-89
2023/01/27 09:00:46;;;;;;;;;;;5.40;58.00;;;;;;5090257;28;19964;-88
2023/01/27 09:03:12;;;;;;;;;;;5.70;57.40;;;;;;5096020;28;19935;-89
2023/01/27 09:05:38;;;;;;;;;;;5.90;55.50;;;;;;5092902;28;20399;-88
2023/01/27 09:08:04;;;;;;;;;;;6.00;56.00;;;;;;5084382;28;19955;-88
2023/01/27 09:10:30;;;;;;;;;;;6.10;55.50;;;;;;5083956;28;19955;-89
2023/01/27 09:12:56;;;;;;;;;;;6.10;55.50;;;;;;5070248;28;19937;-89
2023/01/27 09:15:21;;;;;;;;;;;6.20;55.00;;;;;;5113236;22;19972;-88
2023/01/27 09:17:47;;;;;;;;;;;6.20;54.70;;;;;;5105791;28;19967;-88
2023/01/27 09:20:13;;;;;;;;;;;6.30;55.20;;;;;;5089449;28;19945;-89
2023/01/27 09:22:39;;;;;;;;;;;6.30;54.90;;;;;;5105089;28;19942;-88
2023/01/27 09:25:06;;;;;;;;;;;6.40;53.10;;;;;;5101421;28;19952;-88
2023/01/27 09:27:31;;;;;;;;;;;6.40;54.10;;;;;;5105761;28;19941;-89
2023/01/27 09:29:57;;;;;;;;;;;6.40;52.90;;;;;;5108036;28;20064;-88
2023/01/27 09:32:22;;;;;;;;;;;6.40;53.30;;;;;;5108873;28;20088;-89
2023/01/27 09:34:48;;;;;;;;;;;6.40;52.80;;;;;;5105822;28;20330;-89
2023/01/27 09:37:13;;;;;;;;;;;6.50;52.60;;;;;;5111472;28;19949;-89
2023/01/27 09:39:42;;;;;;;;;;;6.60;50.90;;;;;;5104857;28;20363;-88
2023/01/27 09:42:10;;;;;;;;;;;6.60;54.00;;;;;;5104716;28;20047;-89
2023/01/27 09:44:39;;;;;;;;;;;6.50;52.60;;;;;;5082032;28;19946;-89
2023/01/27 09:47:10;;;;;;;;;;;6.40;53.20;;;;;;5103105;28;20023;-89
2023/01/27 09:49:45;;;;;;;;;;;6.40;54.10;;;;;;5099010;28;20461;-88
2023/01/27 09:52:31;;;;;;;;;;;6.40;53.70;;;;;;5096004;28;19997;-89
2023/01/27 09:55:06;;;;;;;;;;;6.40;54.60;;;;;;5090063;28;20316;-89
2023/01/27 09:57:31;;;;;;;;;;;6.40;54.70;;;;;;5074886;28;19948;-89
2023/01/27 10:00:15;;;;;;;;;;;6.50;55.50;;;;;;5091833;28;19944;-89
2023/01/27 10:02:44;;;;;;;;;;;6.50;55.30;;;;;;5072562;28;19956;-89
2023/01/27 10:05:09;;;;;;;;;;;6.60;53.70;;;;;;5086608;28;20596;-89
2023/01/27 10:07:38;;;;;;;;;;;6.60;53.30;;;;;;5085998;28;19943;-89
2023/01/27 10:10:03;;;;;;;;;;;6.70;54.10;;;;;;5086763;28;20082;-88
2023/01/27 10:12:50;;;;;;;;;;;6.80;52.50;;;;;;5083635;28;20095;-88
2023/01/27 10:15:21;;;;;;;;;;;6.80;51.20;;;;;;5086187;28;20064;-89
2023/01/27 10:18:03;;;;;;;;;;;6.70;50.60;;;;;;5087645;28;20009;-89
2023/01/27 10:20:28;;;;;;;;;;;6.80;52.20;;;;;;5086310;28;19986;-89
2023/01/27 10:22:54;;;;;;;;;;;7.00;53.90;;;;;;5087719;28;19985;-89
2023/01/27 10:25:19;;;;;;;;;;;7.00;53.00;;;;;;5075402;28;19995;-89
2023/01/27 10:27:50;;;;;;;;;;;7.00;52.50;;;;;;5092342;28;19939;-89
2023/01/27 10:30:25;;;;;;;;;;;6.90;52.10;;;;;;5092443;28;20413;-89
2023/01/27 10:33:00;;;;;;;;;;;6.90;51.20;;;;;;5066065;28;20002;-89
2023/01/27 10:35:38;;;;;;;;;;;7.10;51.10;;;;;;5087967;28;20375;-89
2023/01/27 10:38:10;;;;;;;;;;;7.30;48.80;;;;;;5087995;28;20464;-89
2023/01/27 10:40:40;;;;;;;;;;;7.50;48.30;;;;;;5091512;28;19957;-88
2023/01/27 10:43:14;;;;;;;;;;;7.40;50.00;;;;;;5090220;28;19943;-89
2023/01/27 10:45:44;;;;;;;;;;;7.30;49.70;;;;;;5087037;28;20040;-88
2023/01/27 10:48:22;;;;;;;;;;;7.30;50.50;;;;;;5092107;28;19977;-89
2023/01/27 10:50:56;;;;;;;;;;;7.40;50.20;;;;;;5073194;28;20212;-88
2023/01/27 10:53:28;;;;;;;;;;;7.50;48.90;;;;;;5085623;28;19966;-88
2023/01/27 10:55:56;;;;;;;;;;;7.50;50.00;;;;;;5092701;28;19939;-88
2023/01/27 10:58:33;;;;;;;;;;;7.50;49.20;;;;;;5090002;28;19961;-88
2023/01/27 11:00:59;;;;;;;;;;;7.60;49.20;;;;;;5072948;28;19952;-88
2023/01/27 11:03:32;;;;;;;;;;;7.70;49.10;;;;;;5085143;28;19941;-88
2023/01/27 11:06:09;;;;;;;;;;;7.80;48.80;;;;;;5073375;28;19960;-89
2023/01/27 11:08:37;;;;;;;;;;;7.80;48.30;;;;;;5091523;28;19957;-89
2023/01/27 11:13:49;;;;;;;;;;;8.10;46.80;;;;;;5081189;28;20099;-88
2023/01/27 11:16:16;;;;;;;;;;;8.40;46.20;;;;;;5093785;28;19940;-88
2023/01/27 11:18:45;;;;;;;;;;;8.40;45.60;;;;;;5093777;28;19948;-88
2023/01/27 11:21:30;;;;;;;;;;;8.60;47.60;;;;;;5093715;28;19949;-88
2023/01/27 11:23:59;;;;;;;;;;;8.70;46.80;;;;;;5092948;28;19941;-89
2023/01/27 11:26:29;;;;;;;;;;;8.70;45.90;;;;;;5075478;28;19949;-88
2023/01/27 11:29:13;;;;;;;;;;;8.60;44.90;;;;;;5093612;28;20057;-88
2023/01/27 11:31:47;;;;;;;;;;;8.50;43.80;;;;;;5093479;28;19941;-89
2023/01/27 11:34:15;;;;;;;;;;;8.70;44.80;;;;;;5093565;28;19940;-88
2023/01/27 11:36:41;;;;;;;;;;;8.70;45.10;;;;;;5093785;28;19941;-88
2023/01/27 11:39:08;;;;;;;;;;;8.80;45.20;;;;;;5093482;28;19938;-89
2023/01/27 11:41:39;;;;;;;;;;;8.80;43.50;;;;;;5093404;28;20340;-89
2023/01/27 11:44:07;;;;;;;;;;;8.90;42.90;;;;;;5093466;28;20023;-89
2023/01/27 11:46:34;;;;;;;;;;;9.40;42.20;;;;;;5093261;28;19945;-89
2023/01/27 11:49:00;;;;;;;;;;;9.70;41.10;;;;;;5092854;28;20005;-88
2023/01/27 11:51:30;;;;;;;;;;;9.90;42.50;;;;;;5093163;28;19950;-88
2023/01/27 11:54:22;;;;;;;;;;;10.10;43.00;;;;;;5093222;28;20022;-89
2023/01/27 11:56:48;;;;;;;;;;;10.40;43.20;;;;;;5087784;28;19957;-88
2023/01/27 11:59:36;;;;;;;;;;;10.30;40.60;;;;;;5092986;28;19952;-89
2023/01/27 12:02:07;;;;;;;;;;;10.10;40.00;;;;;;5092986;28;20041;-89
2023/01/27 12:04:52;;;;;;;;;;;10.10;39.60;;;;;;5093195;28;19989;-89
2023/01/27 12:07:24;;;;;;;;;;;10.30;40.00;;;;;;5092726;28;20416;-88
2023/01/27 12:09:49;;;;;;;;;;;10.80;39.50;;;;;;5092626;28;19961;-89
2023/01/27 12:12:20;;;;;;;;;;;11.30;38.10;;;;;;5092761;28;19953;-89
2023/01/27 12:14:56;;;;;;;;;;;12.00;37.80;;;;;;5091542;28;20429;-89
2023/01/27 12:17:28;;;;;;;;;;;12.90;36.40;;;;;;5092214;28;20019;-89
2023/01/27 12:19:54;;;;;;;;;;;14.20;32.50;;;;;;5091334;28;20398;-89
2023/01/27 12:22:25;;;;;;;;;;;14.60;31.90;;;;;;5092762;28;20417;-89
2023/01/27 12:24:53;;;;;;;;;;;15.40;30.30;;;;;;5090948;28;20021;-89
2023/01/27 12:27:21;;;;;;;;;;;15.80;30.20;;;;;;5091613;28;19984;-89
2023/01/27 12:29:54;;;;;;;;;;;16.40;28.90;;;;;;5091511;28;20502;-89
2023/01/27 12:32:22;;;;;;;;;;;16.20;28.70;;;;;;5075477;28;20075;-89
2023/01/27 12:34:49;;;;;;;;;;;15.70;30.30;;;;;;5091528;28;20322;-89
2023/01/27 12:37:20;;;;;;;;;;;15.30;30.50;;;;;;5082546;28;19951;-88
2023/01/27 12:39:55;;;;;;;;;;;15.00;30.90;;;;;;5087886;28;19987;-89
2023/01/27 12:42:47;;;;;;;;;;;14.60;30.90;;;;;;5083006;28;19943;-89
2023/01/27 12:45:22;;;;;;;;;;;14.30;31.50;;;;;;5081391;28;19944;-89
2023/01/27 12:48:03;;;;;;;;;;;14.40;32.00;;;;;;5089676;28;19946;-89
2023/01/27 12:50:30;;;;;;;;;;;15.70;29.40;;;;;;5090991;28;20316;-89
2023/01/27 12:53:03;;;;;;;;;;;16.30;28.20;;;;;;5087790;28;20005;-89
2023/01/27 12:55:30;;;;;;;;;;;17.20;27.70;;;;;;5076257;28;19945;-89
2023/01/27 12:57:56;;;;;;;;;;;17.70;27.00;;;;;;5080749;28;19990;-89
2023/01/27 13:00:22;;;;;;;;;;;17.90;26.50;;;;;;5087839;28;19977;-89
2023/01/27 13:02:47;;;;;;;;;;;17.70;26.70;;;;;;5093272;28;19954;-89
2023/01/27 13:05:15;;;;;;;;;;;18.00;26.00;;;;;;5087489;28;20345;-89
2023/01/27 13:07:44;;;;;;;;;;;17.00;27.30;;;;;;5092574;28;19943;-88
2023/01/27 13:10:20;;;;;;;;;;;15.30;28.90;;;;;;5086781;28;19959;-89
2023/01/27 13:12:50;;;;;;;;;;;14.50;30.40;;;;;;5090285;28;20417;-89
2023/01/27 13:15:23;;;;;;;;;;;14.60;30.00;;;;;;5091104;28;19950;-89
2023/01/27 13:17:52;;;;;;;;;;;14.60;29.30;;;;;;5087433;28;19953;-89
2023/01/27 13:20:39;;;;;;;;;;;14.60;29.80;;;;;;5087298;28;19944;-89
2023/01/27 13:23:22;;;;;;;;;;;15.20;28.90;;;;;;5085814;28;19955;-89
2023/01/27 13:25:50;;;;;;;;;;;15.00;30.20;;;;;;5072644;28;19944;-89
2023/01/27 13:28:19;;;;;;;;;;;14.40;30.10;;;;;;5085910;28;19946;-89
2023/01/27 13:30:46;;;;;;;;;;;15.10;30.40;;;;;;5090474;28;19944;-89
2023/01/27 13:33:14;;;;;;;;;;;15.30;29.70;;;;;;5086225;28;20113;-89
2023/01/27 13:35:50;;;;;;;;;;;15.40;28.80;;;;;;5089203;28;19944;-89
2023/01/27 13:38:31;;;;;;;;;;;14.90;29.90;;;;;;5086497;28;20037;-89
2023/01/27 13:40:57;;;;;;;;;;;15.40;29.50;;;;;;5085706;28;20407;-89
2023/01/27 13:43:31;;;;;;;;;;;15.40;28.90;;;;;;5087678;28;19950;-89
2023/01/27 13:46:03;;;;;;;;;;;14.90;29.60;;;;;;5092101;28;19943;-89
2023/01/27 13:48:35;;;;;;;;;;;14.80;29.60;;;;;;5084521;28;20151;-89
2023/01/27 13:51:05;;;;;;;;;;;13.90;30.70;;;;;;5087933;28;19949;-89
2023/01/27 13:53:31;;;;;;;;;;;13.00;32.80;;;;;;5085866;28;19967;-89
2023/01/27 13:55:56;;;;;;;;;;;13.00;33.60;;;;;;5084826;28;19943;-89
2023/01/27 13:58:22;;;;;;;;;;;12.90;34.50;;;;;;5086006;28;19981;-89
2023/01/27 14:01:10;;;;;;;;;;;12.50;35.60;;;;;;5090678;28;19952;-88
2023/01/27 14:03:54;;;;;;;;;;;12.00;36.50;;;;;;5054558;28;19947;-89
2023/01/27 14:06:46;;;;;;;;;;;11.50;38.10;;;;;;5085166;28;19982;-89
2023/01/27 14:09:14;;;;;;;;;;;10.90;36.70;;;;;;5085598;28;19959;-89
2023/01/27 14:11:56;;;;;;;;;;;10.60;37.10;;;;;;5074905;28;19944;-89
2023/01/27 14:14:33;;;;;;;;;;;10.60;37.10;;;;;;5068879;28;20460;-89
2023/01/27 14:17:25;;;;;;;;;;;11.50;35.60;;;;;;5082412;28;20034;-89
2023/01/27 14:20:09;;;;;;;;;;;13.20;32.80;;;;;;5075922;28;20006;-90
2023/01/27 14:22:35;;;;;;;;;;;14.40;30.90;;;;;;5082511;28;19996;-90
2023/01/27 14:25:16;;;;;;;;;;;14.90;30.00;;;;;;5070603;28;19981;-90
2023/01/27 14:27:44;;;;;;;;;;;14.80;29.80;;;;;;5089640;28;19969;-89
2023/01/27 14:30:16;;;;;;;;;;;15.00;29.70;;;;;;5089604;28;19980;-89
2023/01/27 14:32:49;;;;;;;;;;;15.00;30.30;;;;;;5085591;28;19950;-90
2023/01/27 14:35:29;;;;;;;;;;;15.70;30.60;;;;;;5091002;28;20326;-90
2023/01/27 14:38:01;;;;;;;;;;;15.60;29.50;;;;;;5090453;28;19951;-89
2023/01/27 14:40:30;;;;;;;;;;;15.80;29.20;;;;;;5087566;28;19944;-89
2023/01/27 14:42:55;;;;;;;;;;;15.70;28.90;;;;;;5090394;28;19948;-89
2023/01/27 14:45:27;;;;;;;;;;;15.40;28.60;;;;;;5093361;28;19942;-89
2023/01/27 14:47:57;;;;;;;;;;;15.10;29.80;;;;;;5084866;28;19985;-89
2023/01/27 14:50:40;;;;;;;;;;;16.10;28.40;;;;;;5090520;28;20024;-90
2023/01/27 14:53:12;;;;;;;;;;;15.70;28.90;;;;;;5084124;28;19977;-90
2023/01/27 14:56:01;;;;;;;;;;;15.30;29.40;;;;;;5090633;28;20379;-89
2023/01/27 14:58:32;;;;;;;;;;;15.40;29.60;;;;;;5089743;28;19942;-90
2023/01/27 15:01:16;;;;;;;;;;;16.00;28.50;;;;;;5088204;28;19986;-90
2023/01/27 15:04:04;;;;;;;;;;;16.10;28.20;;;;;;5083714;28;19958;-90
2023/01/27 15:06:38;;;;;;;;;;;15.70;29.60;;;;;;5086974;28;19977;-90
2023/01/27 15:09:19;;;;;;;;;;;15.80;28.80;;;;;;5091037;28;20107;-90
2023/01/27 15:11:51;;;;;;;;;;;15.80;29.20;;;;;;5084622;28;19963;-89